Main page


Airports :

Campbeltown, Scotland

Campbeltown Airport

latitude: 55-26-14N, longitude: 005-41-11W, elevation: 13 m

Current weather observation

The report was made 27 minutes ago, at 17:20 UTC
Wind 11 kt from the West/Northwest
Temperature 5°C
Humidity 75%
Pressure 1032 hPa
Visibility 10 km or more
Few clouds at a height of 3000 ft

METAR: EGEC 201720Z 30011KT 9999 FEW030 05/01 Q1032

Time: 17:47 (17:47 UTC)


The report was made 3 hours and 48 minutes ago, at 13:59 UTC
Forecast valid from 20 at 15 UTC to 20 at 18 UTC
Wind 8 kt from the West/Northwest
Visibility 10 km or more
Few clouds at a height of 3500 ft

TAF: EGEC 201359Z 2015/2018 29008KT 9999 FEW035

Weather observations and forecasts of more than 4000 airports (METAR and TAF reports).

The available stations are represented by yellow and red dots on the map.

Hover mouse over dot to see the name of the station.

Then click to see weather observations and forecasts.

To change the map : click on the green buttons with a black cross to zoom in, on the green button with a dash to zoom out, or on the green arrows for adjacent maps.